Terminal Aerodrome Forecast
Issued by NWS Wichita, KS

Home | Current Version | Previous Version | Text Only | Print | Product List | Glossary On
Versions: 1 2 3 4 5 6 7 8 9 10 11 12 13 14 15 16 17 18 19 20 21 22 23 24 25 26 27 28 29
000
FTUS43 KICT 031126
TAFICT
TAF
KICT 031126Z 0312/0412 20019G27KT 5SM BR OVC008
     FM031330 21017G25KT P6SM BKN020
     FM031500 23017G25KT P6SM SCT020 BKN250
     FM031930 36017G25KT P6SM SCT030 OVC250
     FM041000 02018G27KT P6SM BKN035=

USA.gov is the U.S. government's official web portal to all federal, state and local government web resources and services.